Time;durP1;ratioP1;P1;durP2;ratioP2;P2;SDS_P1;SDS_P2;PMS_P1;PMS_P2;Temp;Humidity;BMP_temperature;BMP_pressure;BME280_temperature;BME280_humidity;BME280_pressure;Samples;Min_cycle;Max_cycle;Signal;HPM_P1;HPM_P2
2021/07/31 00:00:04;;;;;;;7.90;3.60;;;;;;;14.18;54.34;100305.75;5015055;28;20120;-68
2021/07/31 00:02:37;;;;;;;5.30;3.25;;;;;;;14.35;54.15;100297.63;5032395;28;20069;-69
2021/07/31 00:05:05;;;;;;;8.10;3.47;;;;;;;14.27;53.94;100299.91;5033086;28;20407;-69
2021/07/31 00:07:30;;;;;;;4.88;3.10;;;;;;;14.26;54.24;100295.59;5036020;28;20025;-68
2021/07/31 00:09:56;;;;;;;7.07;3.38;;;;;;;14.15;54.16;100295.44;5034838;28;20106;-69
2021/07/31 00:12:21;;;;;;;13.57;4.00;;;;;;;14.03;54.60;100294.47;5034184;28;20040;-68
2021/07/31 00:14:46;;;;;;;6.90;4.03;;;;;;;14.11;54.58;100296.59;5016142;28;20483;-69
2021/07/31 00:17:12;;;;;;;6.68;3.17;;;;;;;14.01;54.71;100298.09;5016875;28;20658;-69
2021/07/31 00:19:38;;;;;;;11.43;3.30;;;;;;;14.10;53.83;100281.78;5033047;28;20961;-69
2021/07/31 00:22:03;;;;;;;4.10;2.47;;;;;;;14.10;53.73;100279.16;5031323;28;20174;-69
2021/07/31 00:24:29;;;;;;;7.68;2.10;;;;;;;13.99;53.85;100279.81;5024778;28;20083;-69
2021/07/31 00:26:55;;;;;;;5.40;2.10;;;;;;;14.05;53.71;100278.56;5030938;28;20542;-69
2021/07/31 00:29:21;;;;;;;11.00;2.28;;;;;;;13.20;55.69;100285.56;5031451;28;20108;-69
2021/07/31 00:31:47;;;;;;;4.65;1.58;;;;;;;13.75;54.29;100278.75;5033170;28;20032;-69
2021/07/31 00:34:12;;;;;;;2.78;1.70;;;;;;;13.88;53.93;100277.88;5016023;28;20052;-69
2021/07/31 00:36:38;;;;;;;5.20;2.10;;;;;;;13.93;53.71;100275.78;5017883;28;20685;-69
2021/07/31 00:39:03;;;;;;;3.30;2.17;;;;;;;13.92;53.55;100278.53;5016635;28;20124;-69
2021/07/31 00:41:29;;;;;;;2.42;1.80;;;;;;;13.98;53.31;100267.63;5016287;28;20071;-69
2021/07/31 00:43:55;;;;;;;4.78;2.50;;;;;;;13.73;54.09;100274.44;5029199;28;20068;-69
2021/07/31 00:46:21;;;;;;;3.15;2.55;;;;;;;13.80;54.13;100269.63;5018499;28;20050;-69
2021/07/31 00:48:48;;;;;;;9.30;2.28;;;;;;;13.85;53.94;100269.34;5016757;28;20029;-70
2021/07/31 00:51:15;;;;;;;4.00;2.15;;;;;;;13.01;56.31;100255.22;5029006;28;20505;-69
2021/07/31 00:53:43;;;;;;;3.42;2.75;;;;;;;13.67;54.88;100263.47;5032010;28;20033;-69
2021/07/31 00:56:09;;;;;;;5.63;2.30;;;;;;;13.68;54.26;100259.91;5029569;28;20033;-71
2021/07/31 00:58:35;;;;;;;3.33;2.30;;;;;;;13.58;54.87;100250.91;5017029;28;20067;-69
2021/07/31 01:01:04;;;;;;;3.90;2.22;;;;;;;13.73;53.93;100252.56;5032634;28;20063;-69
2021/07/31 01:03:29;;;;;;;8.48;3.08;;;;;;;13.62;54.63;100255.88;5031881;28;20655;-69
2021/07/31 01:05:56;;;;;;;4.22;2.58;;;;;;;13.83;54.00;100247.56;5023063;28;20056;-69
2021/07/31 01:08:22;;;;;;;3.95;2.40;;;;;;;13.59;54.58;100245.56;5019270;28;20417;-69
2021/07/31 01:10:48;;;;;;;9.82;1.65;;;;;;;13.63;54.39;100251.47;5036398;28;20030;-68
2021/07/31 01:13:16;;;;;;;3.72;2.30;;;;;;;13.93;53.57;100243.44;5036333;28;20446;-69
2021/07/31 01:15:58;;;;;;;6.75;2.40;;;;;;;13.99;53.23;100242.22;5021760;28;20061;-69
2021/07/31 01:18:24;;;;;;;3.95;1.48;;;;;;;13.66;54.10;100235.53;5027307;28;20079;-69
2021/07/31 01:20:50;;;;;;;3.45;2.22;;;;;;;13.87;53.28;100234.16;5035846;28;20029;-70
2021/07/31 01:23:17;;;;;;;4.40;2.22;;;;;;;13.61;53.64;100237.63;5032397;28;20533;-69
2021/07/31 01:25:42;;;;;;;4.70;2.03;;;;;;;13.86;53.39;100239.53;5036588;28;20041;-70
2021/07/31 01:28:08;;;;;;;4.03;1.30;;;;;;;13.73;53.75;100228.94;5035070;28;20491;-69
2021/07/31 01:30:34;;;;;;;3.05;1.50;;;;;;;13.89;53.15;100232.25;5036891;28;20036;-69
2021/07/31 01:33:00;;;;;;;5.75;1.73;;;;;;;13.88;53.14;100221.88;5040687;28;20033;-68
2021/07/31 01:35:26;;;;;;;6.60;1.30;;;;;;;14.10;52.38;100219.53;5036838;28;20040;-70
2021/07/31 01:37:52;;;;;;;3.40;1.52;;;;;;;13.93;52.95;100223.25;5040310;28;20053;-69
2021/07/31 01:40:17;;;;;;;9.15;1.73;;;;;;;14.04;52.59;100219.09;5039380;28;20148;-69
2021/07/31 01:42:44;;;;;;;4.53;1.67;;;;;;;14.16;52.44;100213.03;5037585;28;20034;-69
2021/07/31 01:45:10;;;;;;;4.35;2.00;;;;;;;14.03;52.27;100209.50;5044895;28;20035;-69
2021/07/31 01:47:38;;;;;;;3.95;1.35;;;;;;;13.80;53.01;100196.09;5027470;28;20140;-69
2021/07/31 01:50:04;;;;;;;3.47;1.95;;;;;;;13.84;52.34;100197.56;5037264;28;20029;-69
2021/07/31 01:52:37;;;;;;;5.20;1.50;;;;;;;13.64;52.95;100198.03;5043313;28;20043;-70
2021/07/31 01:55:04;;;;;;;1.95;1.27;;;;;;;13.81;52.42;100197.78;5042500;28;20037;-69
2021/07/31 01:57:33;;;;;;;5.18;1.50;;;;;;;13.74;52.70;100193.84;5042189;28;20083;-70
2021/07/31 02:00:18;;;;;;;2.70;1.08;;;;;;;13.96;52.38;100189.84;5039995;28;20080;-69
2021/07/31 02:03:12;;;;;;;2.90;0.98;;;;;;;13.83;52.07;100190.66;5030927;28;20041;-69
2021/07/31 02:05:50;;;;;;;4.90;1.23;;;;;;;13.80;52.82;100190.84;5041100;28;20029;-69
2021/07/31 02:08:16;;;;;;;2.25;1.30;;;;;;;13.50;53.46;100191.00;5040639;28;20029;-69
2021/07/31 02:10:50;;;;;;;5.22;0.98;;;;;;;13.28;54.06;100189.69;5029594;28;20055;-69
2021/07/31 02:13:16;;;;;;;5.40;1.52;;;;;;;13.44;53.63;100176.47;5042740;28;20861;-69
2021/07/31 02:15:43;;;;;;;2.22;1.10;;;;;;;13.39;53.70;100169.81;5044708;28;20041;-69
2021/07/31 02:18:13;;;;;;;2.72;1.33;;;;;;;13.27;53.88;100180.16;5025071;28;20099;-69
2021/07/31 02:20:38;;;;;;;1.75;1.13;;;;;;;13.47;53.66;100165.78;5039244;28;20048;-69
2021/07/31 02:23:13;;;;;;;5.30;1.25;;;;;;;13.34;54.01;100167.50;5039033;28;20596;-69
2021/07/31 02:25:48;;;;;;;6.00;1.23;;;;;;;13.25;53.82;100168.03;5037648;28;20820;-69
2021/07/31 02:28:45;;;;;;;4.72;1.63;;;;;;;13.57;52.80;100163.44;5030868;28;20044;-69
2021/07/31 02:31:13;;;;;;;1.60;0.90;;;;;;;13.39;53.41;100161.94;5035010;28;20112;-70
2021/07/31 02:33:40;;;;;;;5.70;1.92;;;;;;;13.55;52.78;100154.78;5039816;28;20033;-70
2021/07/31 02:36:06;;;;;;;3.20;0.90;;;;;;;13.57;52.46;100152.09;5041800;28;20557;-70
2021/07/31 02:38:37;;;;;;;6.75;1.30;;;;;;;13.77;51.78;100153.44;5039435;28;20048;-71
2021/07/31 02:41:04;;;;;;;2.63;1.30;;;;;;;13.67;52.52;100150.53;5018318;28;20912;-69
2021/07/31 02:43:33;;;;;;;4.95;1.08;;;;;;;13.72;52.24;100140.59;5043454;28;20033;-70
2021/07/31 02:46:08;;;;;;;5.50;0.90;;;;;;;13.73;51.85;100139.66;5043152;28;20033;-69
2021/07/31 02:48:35;;;;;;;3.83;1.27;;;;;;;13.58;51.89;100130.97;5039846;28;20057;-69
2021/07/31 02:51:08;;;;;;;4.35;1.25;;;;;;;13.50;52.31;100136.69;5028245;28;20037;-70
2021/07/31 02:53:52;;;;;;;4.82;1.20;;;;;;;13.81;51.44;100129.50;5041520;28;20044;-70
2021/07/31 02:56:18;;;;;;;4.43;1.05;;;;;;;13.73;51.39;100122.09;5026787;28;20033;-69
2021/07/31 02:58:44;;;;;;;5.85;1.92;;;;;;;13.48;52.19;100120.19;5036159;28;20033;-70
2021/07/31 03:01:10;;;;;;;3.00;1.10;;;;;;;13.67;51.59;100121.66;5016486;28;20091;-69
2021/07/31 03:03:36;;;;;;;4.47;1.48;;;;;;;13.55;51.88;100114.56;5038029;28;20043;-69
2021/07/31 03:06:03;;;;;;;2.08;1.27;;;;;;;13.58;51.70;100111.75;5019766;28;20131;-69
2021/07/31 03:08:31;;;;;;;3.25;1.30;;;;;;;13.89;51.24;100108.81;5032988;28;20029;-68
2021/07/31 03:11:02;;;;;;;4.90;1.45;;;;;;;13.68;51.71;100107.59;5042014;28;20063;-70
2021/07/31 03:13:29;;;;;;;4.15;1.42;;;;;;;13.96;50.98;100095.28;5017596;28;20041;-69
2021/07/31 03:15:54;;;;;;;2.78;1.17;;;;;;;14.04;50.28;100092.97;5034645;28;20120;-69
2021/07/31 03:18:22;;;;;;;4.45;1.60;;;;;;;13.88;50.72;100088.75;5034090;28;20037;-68
2021/07/31 03:20:50;;;;;;;5.25;1.10;;;;;;;13.61;51.35;100080.06;5030363;28;20035;-68
2021/07/31 03:23:23;;;;;;;5.93;1.55;;;;;;;13.68;51.18;100076.09;5019669;28;20045;-69
2021/07/31 03:25:49;;;;;;;7.43;1.15;;;;;;;13.56;51.24;100071.59;5034785;28;20048;-69
2021/07/31 03:28:15;;;;;;;3.38;1.23;;;;;;;13.91;50.57;100070.13;5022652;28;20112;-70
2021/07/31 03:30:53;;;;;;;5.78;1.20;;;;;;;13.75;51.14;100077.38;5034678;28;20063;-69
2021/07/31 03:33:19;;;;;;;3.72;1.13;;;;;;;13.61;51.47;100075.66;5048236;28;20059;-69
2021/07/31 03:35:45;;;;;;;5.88;1.40;;;;;;;13.62;51.54;100076.50;5033743;28;20037;-69
2021/07/31 03:38:29;;;;;;;3.13;0.98;;;;;;;13.47;51.46;100060.78;5033478;28;20044;-69
2021/07/31 03:40:56;;;;;;;4.60;1.45;;;;;;;13.81;50.75;100060.34;5019961;28;20044;-69
2021/07/31 03:43:28;;;;;;;5.32;1.40;;;;;;;13.79;51.04;100059.63;5030634;28;20873;-69
2021/07/31 03:45:53;;;;;;;3.78;1.02;;;;;;;13.55;51.76;100075.19;5035025;28;20057;-70
2021/07/31 03:48:19;;;;;;;4.05;1.50;;;;;;;13.67;51.09;100072.63;5033211;28;20049;-69
2021/07/31 03:50:47;;;;;;;3.42;1.55;;;;;;;13.88;50.80;100062.47;5030958;28;20135;-69
2021/07/31 03:53:18;;;;;;;4.20;1.63;;;;;;;13.87;50.50;100060.78;5030408;28;20044;-69
2021/07/31 03:55:47;;;;;;;4.40;1.85;;;;;;;13.90;50.49;100060.59;5029641;28;20276;-69
2021/07/31 03:58:13;;;;;;;7.25;2.33;;;;;;;14.03;50.34;100060.63;5032445;28;20045;-69
2021/07/31 04:00:40;;;;;;;5.47;1.63;;;;;;;13.86;50.83;100058.28;5022369;28;20040;-69
2021/07/31 04:03:07;;;;;;;2.35;1.33;;;;;;;14.03;50.36;100055.38;5018044;28;20030;-69
2021/07/31 04:05:33;;;;;;;6.65;1.63;;;;;;;13.86;50.73;100053.84;5033636;28;20036;-69
2021/07/31 04:08:19;;;;;;;4.78;1.60;;;;;;;13.93;50.59;100047.25;5028347;28;20061;-69
2021/07/31 04:11:04;;;;;;;5.18;1.73;;;;;;;13.96;50.88;100047.97;5028878;28;20152;-69
2021/07/31 04:13:50;;;;;;;5.50;2.15;;;;;;;13.93;50.74;100055.13;5002295;28;20139;-69
2021/07/31 04:16:22;;;;;;;8.85;1.98;;;;;;;13.99;50.58;100042.53;5032530;28;20025;-69
2021/07/31 04:18:48;;;;;;;7.43;1.52;;;;;;;14.01;50.41;100041.50;5028804;28;20040;-69
2021/07/31 04:21:14;;;;;;;7.47;1.63;;;;;;;13.86;50.90;100038.09;5031089;28;20498;-69
2021/07/31 04:23:39;;;;;;;6.47;1.63;;;;;;;13.91;50.81;100043.88;5029428;28;20565;-70
2021/07/31 04:26:13;;;;;;;4.00;1.55;;;;;;;13.51;51.56;100043.03;5032185;28;20026;-69
2021/07/31 04:28:40;;;;;;;3.30;1.58;;;;;;;14.06;50.87;100033.28;5031396;28;20029;-69
2021/07/31 04:31:08;;;;;;;5.35;1.75;;;;;;;14.04;50.67;100041.25;5020419;28;20033;-69
2021/07/31 04:33:34;;;;;;;11.23;2.50;;;;;;;13.97;50.84;100032.13;5033354;28;20051;-69
2021/07/31 04:36:00;;;;;;;5.47;1.48;;;;;;;14.19;50.62;100039.38;5037668;28;20025;-69
2021/07/31 04:38:26;;;;;;;8.52;1.92;;;;;;;14.19;50.55;100034.13;5030825;28;21311;-68
2021/07/31 04:40:51;;;;;;;4.95;1.60;;;;;;;14.18;50.73;100037.69;5031073;28;20545;-68
2021/07/31 04:43:17;;;;;;;2.85;1.63;;;;;;;14.31;50.55;100032.44;5032689;28;20037;-68
2021/07/31 04:45:42;;;;;;;7.18;2.13;;;;;;;14.18;50.67;100026.34;5033136;28;20052;-69
2021/07/31 04:48:08;;;;;;;2.63;1.63;;;;;;;14.42;50.45;100021.22;5032828;28;20048;-69
2021/07/31 04:50:33;;;;;;;2.88;1.55;;;;;;;14.20;51.02;100019.19;5040114;28;20036;-69
2021/07/31 04:52:59;;;;;;;4.15;1.80;;;;;;;14.35;50.68;100011.09;5034911;28;20056;-69
2021/07/31 04:55:24;;;;;;;4.22;1.60;;;;;;;14.49;50.05;100015.41;5033578;28;20037;-69
2021/07/31 04:57:49;;;;;;;4.40;2.17;;;;;;;14.39;50.28;100008.22;5018130;28;20029;-69
2021/07/31 05:00:15;;;;;;;4.38;1.83;;;;;;;14.21;50.88;100000.72;5031122;28;20034;-69
2021/07/31 05:02:40;;;;;;;4.70;2.35;;;;;;;14.04;51.81;100003.66;5032721;28;20067;-69
2021/07/31 05:05:06;;;;;;;8.77;2.22;;;;;;;14.04;51.43;100008.91;5030826;28;20029;-69
2021/07/31 05:07:32;;;;;;;3.63;1.40;;;;;;;14.34;51.29;100004.16;5032776;28;20033;-69
2021/07/31 05:09:57;;;;;;;3.83;1.80;;;;;;;14.02;51.90;100005.53;5018690;28;20037;-69
2021/07/31 05:12:22;;;;;;;5.78;1.67;;;;;;;14.32;51.38;100000.81;5032873;28;20762;-69
2021/07/31 05:14:52;;;;;;;7.43;2.33;;;;;;;14.27;51.51;100008.16;5031947;28;20033;-69
2021/07/31 05:17:21;;;;;;;5.13;2.28;;;;;;;14.18;51.98;100008.78;5021279;28;20079;-69
2021/07/31 05:19:47;;;;;;;10.20;3.03;;;;;;;14.26;51.32;99997.75;5032683;28;20164;-69
2021/07/31 05:22:17;;;;;;;5.45;2.17;;;;;;;14.29;51.43;99998.38;5031696;28;20040;-68
2021/07/31 05:24:43;;;;;;;8.30;2.55;;;;;;;14.07;51.85;100000.81;5033376;28;20386;-68
2021/07/31 05:27:08;;;;;;;4.00;1.98;;;;;;;14.52;50.70;99993.31;5030600;28;20041;-68
2021/07/31 05:29:34;;;;;;;6.03;2.33;;;;;;;13.98;52.31;99996.19;5033710;28;20040;-69
2021/07/31 05:32:00;;;;;;;9.45;2.25;;;;;;;14.49;51.23;99996.16;5035513;28;20148;-69
2021/07/31 05:34:26;;;;;;;3.80;2.30;;;;;;;13.51;53.17;99987.91;5031912;28;20289;-68
2021/07/31 05:36:52;;;;;;;6.75;2.92;;;;;;;14.54;51.25;100000.16;5030038;28;20017;-68
2021/07/31 05:39:18;;;;;;;8.15;2.17;;;;;;;14.22;51.98;99997.13;5033369;28;20048;-69
2021/07/31 05:41:43;;;;;;;11.25;2.88;;;;;;;13.89;52.65;99985.34;5016455;28;20033;-69
2021/07/31 05:44:09;;;;;;;8.63;2.70;;;;;;;14.41;51.47;99986.22;5029688;28;20642;-69
2021/07/31 05:46:34;;;;;;;7.93;2.65;;;;;;;13.30;54.95;99987.53;5021251;28;20478;-69
2021/07/31 05:49:00;;;;;;;4.95;2.00;;;;;;;14.20;52.62;99991.13;5034266;28;20090;-69
2021/07/31 05:51:25;;;;;;;8.55;2.15;;;;;;;14.40;52.03;99975.75;5034193;28;20068;-69
2021/07/31 05:53:51;;;;;;;2.70;2.45;;;;;;;13.98;52.89;99980.41;5032790;28;20541;-69
2021/07/31 05:56:16;;;;;;;6.53;2.40;;;;;;;14.02;53.18;99976.63;5030571;28;20045;-69
2021/07/31 05:58:42;;;;;;;8.00;2.35;;;;;;;14.42;52.08;99985.25;5034010;28;20032;-69
2021/07/31 06:01:08;;;;;;;3.03;2.35;;;;;;;13.45;54.04;99976.03;5033635;28;20174;-69
2021/07/31 06:03:37;;;;;;;5.38;2.33;;;;;;;13.83;53.48;99988.41;5035012;28;20171;-69
2021/07/31 06:06:06;;;;;;;5.00;2.40;;;;;;;14.13;53.10;99992.50;5033236;28;20057;-69
2021/07/31 06:08:31;;;;;;;2.92;2.45;;;;;;;14.04;53.49;99985.25;5029498;28;20087;-69
2021/07/31 06:11:04;;;;;;;4.90;3.15;;;;;;;14.05;54.20;99994.81;5035743;28;20041;-69
2021/07/31 06:13:30;;;;;;;5.47;2.28;;;;;;;13.90;54.40;99987.03;5041499;28;20068;-68
2021/07/31 06:15:56;;;;;;;5.57;2.90;;;;;;;13.47;56.20;99989.91;5043060;28;20029;-69
2021/07/31 06:18:22;;;;;;;6.63;2.50;;;;;;;13.36;56.30;99984.53;5035555;28;20144;-69
2021/07/31 06:20:48;;;;;;;4.07;2.30;;;;;;;13.49;55.99;99995.03;5035571;28;20473;-68
2021/07/31 06:23:13;;;;;;;7.32;2.47;;;;;;;13.69;55.67;99983.22;5036305;28;20037;-69
2021/07/31 06:25:38;;;;;;;4.53;2.88;;;;;;;12.70;58.19;99979.09;5040634;28;20037;-69
2021/07/31 06:28:04;;;;;;;5.97;2.50;;;;;;;13.09;57.40;99982.75;5036808;28;20045;-69
2021/07/31 06:30:29;;;;;;;8.13;3.20;;;;;;;13.96;55.45;99984.94;5035642;28;20042;-69
2021/07/31 06:32:55;;;;;;;5.30;2.70;;;;;;;13.59;56.20;100011.06;5020805;28;20040;-69
2021/07/31 06:35:20;;;;;;;8.23;3.60;;;;;;;13.80;55.61;99985.97;5034941;28;20542;-69
2021/07/31 06:37:46;;;;;;;13.95;3.22;;;;;;;14.01;55.26;99982.81;5037318;28;20448;-69
2021/07/31 06:40:11;;;;;;;9.65;3.83;;;;;;;14.43;53.63;99983.44;5034486;28;20084;-69
2021/07/31 06:42:37;;;;;;;5.97;2.92;;;;;;;14.79;52.93;99969.50;5038277;28;20036;-69
2021/07/31 06:45:03;;;;;;;9.23;2.63;;;;;;;14.34;53.68;99988.41;5019141;28;20593;-69
2021/07/31 06:47:28;;;;;;;6.55;2.00;;;;;;;14.47;53.66;99977.88;5019189;28;20069;-69
2021/07/31 06:49:54;;;;;;;5.15;2.50;;;;;;;14.85;52.59;99973.44;5038972;28;20071;-69
2021/07/31 06:52:20;;;;;;;7.25;2.05;;;;;;;14.76;52.73;99978.41;5035206;28;20040;-69
2021/07/31 06:54:45;;;;;;;6.32;1.90;;;;;;;15.02;51.95;99985.41;5016752;28;20060;-70
2021/07/31 06:57:11;;;;;;;4.32;1.95;;;;;;;16.28;49.72;99984.69;5041184;28;20018;-69
2021/07/31 06:59:37;;;;;;;6.68;2.70;;;;;;;18.79;42.73;99977.91;5033890;28;20059;-69
2021/07/31 07:02:03;;;;;;;9.27;2.72;;;;;;;18.27;42.91;99978.06;5033833;28;20044;-69
2021/07/31 07:04:28;;;;;;;6.28;2.13;;;;;;;18.61;42.79;99972.44;5035341;28;20032;-69
2021/07/31 07:06:54;;;;;;;6.68;1.58;;;;;;;16.78;45.97;99971.97;5033271;28;20670;-68
2021/07/31 07:09:19;;;;;;;10.93;3.53;;;;;;;16.65;46.55;99973.88;5033974;28;20581;-70
2021/07/31 07:11:44;;;;;;;13.52;3.58;;;;;;;16.71;47.83;99973.38;5034388;28;20048;-69
2021/07/31 07:14:10;;;;;;;12.10;1.80;;;;;;;16.08;48.48;99975.69;5032922;28;20567;-68
2021/07/31 07:16:36;;;;;;;7.40;2.65;;;;;;;16.27;48.15;99976.91;5042383;28;20067;-69
2021/07/31 07:19:01;;;;;;;10.38;2.55;;;;;;;15.31;50.86;99964.84;5033977;28;20063;-69
2021/07/31 07:21:27;;;;;;;8.07;2.55;;;;;;;15.46;51.10;99968.13;5033195;28;20037;-68
2021/07/31 07:23:52;;;;;;;8.18;2.08;;;;;;;15.52;51.36;99962.41;5033365;28;20809;-69
2021/07/31 07:26:18;;;;;;;8.63;3.10;;;;;;;14.44;54.69;99964.13;5035136;28;20737;-70
2021/07/31 07:28:44;;;;;;;8.45;2.53;;;;;;;14.11;55.36;99962.84;5033920;28;20052;-69
2021/07/31 07:31:14;;;;;;;9.48;3.00;;;;;;;14.00;56.34;99973.28;5036085;28;20045;-68
2021/07/31 07:33:41;;;;;;;9.32;3.10;;;;;;;14.31;55.31;99975.44;5035244;28;20086;-68
2021/07/31 07:36:13;;;;;;;7.22;2.10;;;;;;;14.42;55.56;99976.53;5033886;28;20037;-69
2021/07/31 07:38:39;;;;;;;4.60;1.80;;;;;;;14.91;54.57;99973.84;5036644;28;20123;-69
2021/07/31 07:41:09;;;;;;;5.97;2.38;;;;;;;15.33;53.11;99970.84;5047765;28;20036;-70
2021/07/31 07:43:35;;;;;;;4.53;1.83;;;;;;;14.20;55.89;99977.16;5034032;28;20033;-69
2021/07/31 07:46:02;;;;;;;6.53;2.88;;;;;;;13.90;56.89;99973.91;5031914;28;20082;-69
2021/07/31 07:48:27;;;;;;;11.93;2.92;;;;;;;14.09;56.08;99970.00;5034596;28;20033;-69
2021/07/31 07:50:52;;;;;;;2.88;1.75;;;;;;;14.47;55.43;99974.41;5032565;28;20422;-68
2021/07/31 07:53:18;;;;;;;7.55;2.22;;;;;;;14.89;54.87;99978.38;5030080;28;20033;-69
2021/07/31 07:55:43;;;;;;;8.00;2.05;;;;;;;15.47;52.58;99962.75;5016223;28;20040;-69
2021/07/31 07:58:10;;;;;;;8.43;1.77;;;;;;;14.92;53.59;99965.00;5033907;28;20017;-69
2021/07/31 08:00:36;;;;;;;7.53;1.95;;;;;;;14.79;53.85;99963.38;5033422;28;20037;-71
2021/07/31 08:03:02;;;;;;;4.93;1.88;;;;;;;15.22;52.70;99955.00;5037848;28;20048;-68
2021/07/31 08:05:28;;;;;;;6.80;1.75;;;;;;;15.03;52.61;99958.94;5032994;28;20037;-71
2021/07/31 08:07:54;;;;;;;6.75;1.60;;;;;;;14.07;55.89;99971.91;5035027;28;20086;-69
2021/07/31 08:10:19;;;;;;;10.43;2.15;;;;;;;13.76;57.48;99979.25;5033176;28;20041;-69
2021/07/31 08:12:45;;;;;;;4.80;1.65;;;;;;;13.78;58.15;99987.03;5032828;28;20071;-68
2021/07/31 08:15:11;;;;;;;7.75;1.80;;;;;;;13.80;58.35;99991.22;5034579;28;20060;-68
2021/07/31 08:17:37;;;;;;;9.30;2.25;;;;;;;13.43;58.91;99980.53;5031981;28;20056;-69
2021/07/31 08:20:04;;;;;;;8.10;2.50;;;;;;;13.90;59.35;99976.53;5035340;28;20052;-69
2021/07/31 08:22:29;;;;;;;6.78;1.73;;;;;;;16.08;52.23;99959.88;5032123;28;20396;-68
2021/07/31 08:24:55;;;;;;;6.15;1.60;;;;;;;17.91;48.19;99952.09;5018021;28;20040;-69
2021/07/31 08:27:21;;;;;;;3.35;1.50;;;;;;;17.09;48.79;99953.63;5029976;28;20037;-68
2021/07/31 08:29:46;;;;;;;6.70;1.27;;;;;;;17.89;47.14;99954.88;5033270;28;20029;-68
2021/07/31 08:32:12;;;;;;;7.65;1.83;;;;;;;17.54;47.50;99956.06;5017674;28;20037;-68
2021/07/31 08:34:37;;;;;;;4.43;1.50;;;;;;;17.70;47.68;99944.22;5031640;28;20039;-68
2021/07/31 08:37:03;;;;;;;3.55;0.82;;;;;;;15.84;51.88;99953.84;5032506;28;20079;-68
2021/07/31 08:39:30;;;;;;;4.38;1.35;;;;;;;15.65;52.60;99957.88;5033308;28;20041;-68
2021/07/31 08:41:56;;;;;;;9.32;1.52;;;;;;;17.26;49.81;99951.38;5033549;28;20041;-68
2021/07/31 08:44:21;;;;;;;4.20;1.15;;;;;;;17.45;48.39;99946.25;5032320;28;20039;-68
2021/07/31 08:46:49;;;;;;;5.65;1.15;;;;;;;18.90;45.59;99924.06;5035688;28;20064;-69
2021/07/31 08:49:19;;;;;;;3.88;1.10;;;;;;;17.47;48.83;99917.91;5047321;28;20029;-69
2021/07/31 08:51:46;;;;;;;5.88;0.98;;;;;;;17.51;48.63;99921.97;5033706;28;20029;-69
2021/07/31 08:54:12;;;;;;;7.15;0.82;;;;;;;16.33;49.76;99910.47;5031180;28;20037;-69
2021/07/31 08:56:44;;;;;;;4.00;0.90;;;;;;;15.67;50.75;99918.25;5032591;28;20095;-68
2021/07/31 08:59:10;;;;;;;10.52;0.60;;;;;;;16.21;49.96;99915.78;5032587;28;20033;-68
2021/07/31 09:01:35;;;;;;;5.13;1.05;;;;;;;16.08;50.53;99914.22;5034742;28;20113;-69
2021/07/31 09:04:13;;;;;;;7.18;0.73;;;;;;;15.28;53.90;99922.94;5034018;28;20128;-69
2021/07/31 09:06:39;;;;;;;9.90;1.73;;;;;;;14.45;56.78;99921.09;5023098;28;20038;-68
2021/07/31 09:09:06;;;;;;;8.52;0.93;;;;;;;14.49;57.28;99926.00;5031170;28;20518;-68
2021/07/31 09:11:32;;;;;;;5.07;0.82;;;;;;;13.42;59.73;99934.22;5032752;28;20044;-68
2021/07/31 09:14:09;;;;;;;3.50;0.70;;;;;;;13.40;59.63;99951.84;5036748;28;20048;-68
2021/07/31 09:16:35;;;;;;;1.92;0.60;;;;;;;13.02;61.22;99955.22;5031981;28;20079;-68
2021/07/31 09:19:08;;;;;;;2.75;0.60;;;;;;;13.42;60.53;99959.63;5033831;28;20149;-69
2021/07/31 09:21:35;;;;;;;1.77;0.52;;;;;;;13.98;59.02;99956.78;5032669;28;20049;-69
2021/07/31 09:24:01;;;;;;;5.25;0.40;;;;;;;13.09;61.86;99974.03;5033111;28;20044;-69
2021/07/31 09:26:38;;;;;;;3.40;0.45;;;;;;;13.20;61.44;99978.56;5031968;28;20033;-69
2021/07/31 09:29:11;;;;;;;1.88;0.50;;;;;;;13.01;61.79;99982.41;5032692;28;20735;-69
2021/07/31 09:31:54;;;;;;;4.45;0.60;;;;;;;12.58;64.06;99992.09;5034926;28;20040;-69
2021/07/31 09:34:49;;;;;;;8.95;0.55;;;;;;;12.70;63.48;99992.22;5029941;28;20033;-68
2021/07/31 09:37:18;;;;;;;7.57;0.77;;;;;;;12.97;62.70;100007.13;5021744;28;20414;-68
2021/07/31 09:40:08;;;;;;;1.13;0.73;;;;;;;12.59;63.82;100013.00;5031867;28;20068;-69
2021/07/31 09:42:38;;;;;;;3.15;0.77;;;;;;;12.42;63.98;100015.81;4993691;28;20063;-69
2021/07/31 09:45:15;;;;;;;4.10;0.70;;;;;;;12.74;63.93;100019.09;5035661;28;20084;-68
2021/07/31 09:48:00;;;;;;;3.63;0.50;;;;;;;12.62;64.45;100028.50;5016616;28;20076;-68
2021/07/31 09:50:43;;;;;;;6.18;1.38;;;;;;;12.65;64.30;100023.09;5036930;28;20555;-68
2021/07/31 09:53:13;;;;;;;5.63;0.90;;;;;;;12.33;65.52;100034.72;5037641;28;20033;-68
2021/07/31 09:55:49;;;;;;;3.53;1.35;;;;;;;12.45;64.56;100047.91;5034135;28;20424;-69
2021/07/31 09:58:18;;;;;;;6.80;1.65;;;;;;;12.74;63.66;100037.44;5036727;28;20048;-69
2021/07/31 10:00:46;;;;;;;10.40;1.58;;;;;;;13.27;62.29;100061.19;5037091;28;20029;-69
2021/07/31 10:03:13;;;;;;;7.43;1.45;;;;;;;13.05;63.09;100040.78;5020696;28;20033;-68
2021/07/31 10:05:42;;;;;;;3.50;1.48;;;;;;;12.59;64.19;100059.34;5033378;28;20025;-68
2021/07/31 10:08:10;;;;;;;6.88;0.98;;;;;;;12.81;63.51;100072.84;5018151;28;20487;-69
2021/07/31 10:10:36;;;;;;;7.53;2.33;;;;;;;13.22;62.93;100082.50;5033498;28;20029;-69
2021/07/31 10:13:02;;;;;;;4.18;1.35;;;;;;;13.07;63.15;100086.09;5037461;28;20473;-69
2021/07/31 10:15:28;;;;;;;5.80;1.10;;;;;;;13.05;63.64;100101.94;5038572;28;20390;-69
2021/07/31 10:17:54;;;;;;;5.90;1.50;;;;;;;12.85;64.29;100107.59;5037500;28;20029;-69
2021/07/31 10:20:27;;;;;;;7.18;1.50;;;;;;;13.41;62.86;100111.03;5037513;28;20489;-69
2021/07/31 10:22:54;;;;;;;8.65;2.05;;;;;;;13.55;62.13;100110.16;5036781;28;20041;-69
2021/07/31 10:25:21;;;;;;;9.82;1.80;;;;;;;13.70;61.26;100121.47;5036631;28;20039;-69
2021/07/31 10:27:48;;;;;;;12.40;2.72;;;;;;;12.92;63.36;100122.00;5036809;28;20032;-69
2021/07/31 10:30:31;;;;;;;13.05;2.03;;;;;;;13.06;63.09;100131.63;5034019;28;20056;-69
2021/07/31 10:32:57;;;;;;;6.47;2.22;;;;;;;13.22;62.67;100136.75;5035638;28;20049;-69
2021/07/31 10:35:28;;;;;;;17.45;3.20;;;;;;;13.61;62.06;100132.59;5033385;28;20032;-69
2021/07/31 10:37:59;;;;;;;12.50;1.60;;;;;;;13.28;61.67;100149.50;5036732;28;20490;-69
2021/07/31 10:40:36;;;;;;;13.30;2.07;;;;;;;13.86;60.46;100145.78;5020979;28;21068;-69
2021/07/31 10:43:06;;;;;;;4.47;1.33;;;;;;;13.30;61.71;100161.59;5034634;28;20057;-69
2021/07/31 10:45:33;;;;;;;8.85;1.85;;;;;;;13.28;61.83;100167.88;5021699;28;20032;-69
2021/07/31 10:48:00;;;;;;;10.10;1.75;;;;;;;13.39;61.69;100169.81;5026083;28;20129;-69
2021/07/31 10:50:26;;;;;;;4.80;2.00;;;;;;;13.94;60.80;100180.28;5034163;28;20030;-70
2021/07/31 10:52:51;;;;;;;9.30;2.17;;;;;;;14.23;59.59;100177.53;5020652;28;20029;-68
2021/07/31 10:55:22;;;;;;;9.93;2.22;;;;;;;14.51;58.68;100191.47;5034097;28;20068;-68
2021/07/31 10:57:54;;;;;;;12.15;1.75;;;;;;;14.68;58.17;100183.28;5034584;28;21075;-69
2021/07/31 11:00:34;;;;;;;10.63;2.33;;;;;;;14.82;57.87;100190.22;5018341;28;20163;-69
2021/07/31 11:03:03;;;;;;;11.60;1.90;;;;;;;14.81;57.57;100200.84;5033851;28;20041;-69
2021/07/31 11:05:51;;;;;;;7.90;1.63;;;;;;;14.26;58.94;100190.47;5036311;28;20413;-69
2021/07/31 11:08:18;;;;;;;7.72;1.55;;;;;;;13.71;61.02;100196.69;5034725;28;20068;-68
2021/07/31 11:10:56;;;;;;;6.88;1.08;;;;;;;14.49;59.93;100209.16;5039333;28;20052;-68
2021/07/31 11:13:22;;;;;;;4.78;1.88;;;;;;;14.63;59.10;100216.09;5032810;28;20491;-68
2021/07/31 11:15:58;;;;;;;7.43;1.58;;;;;;;15.30;57.83;100222.00;5034413;28;20069;-68
2021/07/31 11:18:25;;;;;;;11.18;2.45;;;;;;;14.81;59.52;100225.38;5035110;28;20041;-69
2021/07/31 11:20:51;;;;;;;13.43;1.90;;;;;;;14.56;59.25;100236.72;5037492;28;20042;-68
2021/07/31 11:23:18;;;;;;;11.85;1.95;;;;;;;15.07;58.39;100241.16;5017721;28;20068;-68
2021/07/31 11:25:45;;;;;;;9.38;1.80;;;;;;;14.90;58.80;100255.47;5034277;28;20044;-69
2021/07/31 11:28:11;;;;;;;8.52;2.17;;;;;;;15.27;57.14;100239.81;5016491;28;20123;-68
2021/07/31 11:30:40;;;;;;;6.00;1.02;;;;;;;14.97;57.80;100246.22;5033979;28;20078;-70